Atlantic, Pennsylvania
Current Conditions -  °F | °C
As of 8:17 PM on Monday 20 Oct 2014 (Local Time) from KGKJ Reporting Station
Overcast Overcast  
Wind Chill:   Ceiling: 2800
Heat Index:   Visibility: 10mi
Dew Point:   Wind: 6mph
Humidity: 86%   Direction: 190°S
Pressure: 29.86"   Gusts: NA
Location:  41.5°N, 80.33°W
Report Text: KGKJ 210017Z AUTO 19005KT 10SM OVC028 09/07 A2986 RMK AO2 RAE17 P0001 T00940072 TSNO
Loading
Personal Weather Stations






























Interactive Weather Map
Tropical Storm Tracking
New forecast layout! Learn more

10-Day Weather Forecast

Advertisements
Track Severe Weather on mobile